Beaver Island, MI

3:36 AM EDT on May 25, 2017 (GMT -0400)
Beaver Island

Weather History for KSJX - November, 2012

Change the Weather History Date:

Sunday, November 18, 2012

  Actual Average Record
Temperature  
Mean Temperature 46 °F -  
Max Temperature 54 °F 42 °F 64 °F (1958)
Min Temperature 37 °F 31 °F 14 °F (1959)
Degree Days  
Heating Degree Days 20    
Moisture  
Dew Point 34 °F    
Average Humidity 65    
Maximum Humidity 91    
Minimum Humidity 44    
Precipitation  
Precipitation 0.00 in - - ()
Sea Level Pressure  
Sea Level Pressure 30.41 in    
Wind  
Wind Speed 5 mph (SSE)    
Max Wind Speed 10 mph    
Max Gust Speed 17 mph    
Visibility 10 miles    
Events      
Averages and records for this station are not official NWS values.
T = Trace of Precipitation, MM = Missing Value Source: NWS Daily Summary

Daily Weather History Graph

Daily Weather History Graph

Search for Another Location

Airport or City:

Trip Planner

Search our weather history database for the weather conditions in past years. The results will help you decide how hot, cold, wet, or windy it might be!

Date:

Astronomy

Nov. 18, 2012 Rise Set
Actual Time 7:46 AM EST 5:08 PM EST
Civil Twilight 7:14 AM EST 5:40 PM EST
Nautical Twilight 6:37 AM EST 6:16 PM EST
Astronomical Twilight 6:02 AM EST 6:52 PM EST
Moon 12:09 PM EST (11/18) 10:31 PM EST (11/18)
Length of Visible Light 10h 26m
Length of Day
9h 21m
Waxing Crescent, 30% of the Moon is Illuminated
Nov 18
Waxing Crescent
Nov 20
First Quarter
Nov 28
Full
Dec 6
Last Quarter
Dec 13
New

Hourly Weather History & Observations

Time (EST) Temp. Windchill Dew Point Humidity Pressure Visibility Wind Dir Wind Speed Gust Speed Precip Events Conditions
12:17 AM 37.9 °F 35.5 °F 35.4 °F 91% 30.47 in 7.0 mi SE 3.5 mph - N/A   Clear
12:36 AM 39.9 °F 37.8 °F 36.1 °F 86% 30.47 in 10.0 mi SSE 3.5 mph - N/A   Clear
12:56 AM 40.5 °F 38.4 °F 35.6 °F 83% 30.46 in 10.0 mi SSE 3.5 mph - N/A   Clear
1:16 AM 41.2 °F 39.2 °F 35.6 °F 81% 30.47 in 10.0 mi SE 3.5 mph - N/A   Clear
1:36 AM 41.0 °F 39.0 °F 35.4 °F 81% 30.46 in 10.0 mi SSE 3.5 mph - N/A   Clear
1:57 AM 42.8 °F 41.1 °F 35.4 °F 75% 30.46 in 10.0 mi SSE 3.5 mph - N/A   Clear
2:16 AM 42.4 °F 39.6 °F 34.9 °F 75% 30.46 in 10.0 mi SSE 4.6 mph - N/A   Clear
2:36 AM 43.0 °F 40.3 °F 35.2 °F 74% 30.47 in 10.0 mi SSE 4.6 mph - N/A   Clear
2:57 AM 43.0 °F 40.3 °F 34.9 °F 73% 30.47 in 10.0 mi SSE 4.6 mph - N/A   Clear
3:16 AM 43.0 °F 40.3 °F 34.9 °F 73% 30.46 in 10.0 mi SSE 4.6 mph - N/A   Clear
3:37 AM 43.2 °F 41.5 °F 34.7 °F 72% 30.46 in 10.0 mi SSE 3.5 mph - N/A   Clear
3:57 AM 42.6 °F 39.9 °F 34.9 °F 74% 30.45 in 10.0 mi SSE 4.6 mph - N/A   Clear
4:16 AM 42.1 °F 40.2 °F 35.1 °F 76% 30.45 in 10.0 mi SSE 3.5 mph - N/A   Clear
4:37 AM 42.1 °F 38.4 °F 34.9 °F 76% 30.45 in 10.0 mi SSE 5.8 mph - N/A   Clear
4:56 AM 41.9 °F 39.0 °F 34.3 °F 75% 30.45 in 10.0 mi SSE 4.6 mph - N/A   Clear
5:17 AM 42.4 °F 39.6 °F 34.0 °F 72% 30.45 in 10.0 mi South 4.6 mph - N/A   Clear
5:36 AM 42.3 °F 39.4 °F 34.2 °F 73% 30.45 in 10.0 mi South 4.6 mph - N/A   Clear
6:17 AM 42.1 °F 39.2 °F 34.2 °F 74% 30.45 in 10.0 mi SSE 4.6 mph - N/A   Clear
6:36 AM 41.0 °F 38.0 °F 33.8 °F 76% 30.45 in 10.0 mi SSE 4.6 mph - N/A   Clear
7:17 AM 41.5 °F 39.6 °F 34.0 °F 75% 30.45 in 10.0 mi SSE 3.5 mph - N/A   Clear
7:36 AM 40.1 °F 38.0 °F 33.4 °F 77% 30.45 in 10.0 mi SSE 3.5 mph - N/A   Clear
7:56 AM 40.5 °F 38.4 °F 34.0 °F 78% 30.45 in 10.0 mi South 3.5 mph - N/A   Clear
8:16 AM 40.3 °F 38.2 °F 33.6 °F 77% 30.45 in 10.0 mi SSE 3.5 mph - N/A   Clear
8:37 AM 41.5 °F 39.6 °F 34.7 °F 77% 30.45 in 10.0 mi SSE 3.5 mph - N/A   Clear
8:56 AM 40.1 °F 36.9 °F 34.0 °F 79% 30.45 in 10.0 mi SE 4.6 mph - N/A   Clear
9:17 AM 43.7 °F 41.1 °F 36.7 °F 76% 30.45 in 10.0 mi SSE 4.6 mph - N/A   Clear
9:36 AM 45.3 °F 42.3 °F 37.6 °F 74% 30.45 in 10.0 mi SSE 5.8 mph - N/A   Clear
9:56 AM 46.4 °F 42.9 °F 37.6 °F 71% 30.45 in 10.0 mi SSE 6.9 mph - N/A   Clear
10:17 AM 47.3 °F - 37.4 °F 68% 30.45 in 10.0 mi SSE 6.9 mph - N/A   Clear
10:36 AM 48.2 °F - 37.2 °F 66% 30.45 in 10.0 mi SE 5.8 mph - N/A   Clear
10:56 AM 48.2 °F - 36.3 °F 63% 30.45 in 10.0 mi SSE 8.1 mph - N/A   Clear
11:16 AM 49.5 °F - 36.5 °F 61% 30.45 in 10.0 mi South 6.9 mph - N/A   Clear
11:36 AM 50.0 °F - 35.6 °F 58% 30.44 in 10.0 mi South 8.1 mph - N/A   Clear
11:57 AM 50.9 °F - 35.1 °F 55% 30.43 in 10.0 mi South 9.2 mph - N/A   Clear
12:16 PM 51.8 °F - 35.1 °F 53% 30.43 in 10.0 mi SSE 6.9 mph - N/A   Clear
12:36 PM 51.8 °F - 35.2 °F 53% 30.43 in 10.0 mi South 6.9 mph - N/A   Clear
12:57 PM 52.0 °F - 34.9 °F 52% 30.42 in 10.0 mi South 4.6 mph - N/A   Clear
1:16 PM 52.5 °F - 34.2 °F 50% 30.41 in 10.0 mi South 6.9 mph - N/A   Clear
1:36 PM 54.0 °F - 33.8 °F 46% 30.41 in 10.0 mi South 5.8 mph - N/A   Clear
1:57 PM 51.8 °F - 32.9 °F 49% 30.41 in 10.0 mi SSE 6.9 mph - N/A   Clear
2:16 PM 53.6 °F - 33.4 °F 46% 30.40 in 10.0 mi SSE 6.9 mph - N/A   Clear
2:37 PM 53.1 °F - 33.4 °F 47% 30.40 in 10.0 mi SSE 5.8 mph - N/A   Clear
3:16 PM 53.1 °F - 33.1 °F 47% 30.38 in 10.0 mi ESE 5.8 mph - N/A   Clear
3:37 PM 53.6 °F - 32.7 °F 45% 30.39 in 10.0 mi SSE 5.8 mph - N/A   Clear
3:56 PM 53.1 °F - 31.6 °F 44% 30.38 in 10.0 mi SE 8.1 mph - N/A   Clear
4:16 PM 52.7 °F - 31.1 °F 44% 30.38 in 10.0 mi SSE 5.8 mph - N/A   Clear
4:37 PM 52.0 °F - 31.1 °F 45% 30.38 in 10.0 mi SSE 4.6 mph - N/A   Clear
4:56 PM 50.5 °F - 31.3 °F 48% 30.38 in 10.0 mi SE 3.5 mph - N/A   Clear
5:16 PM 49.3 °F - 31.8 °F 51% 30.38 in 10.0 mi Calm Calm - N/A   Clear
5:36 PM 41.4 °F - 30.6 °F 65% 30.38 in 10.0 mi Calm Calm - N/A   Clear
5:56 PM 41.5 °F 39.6 °F 31.3 °F 67% 30.38 in 10.0 mi ESE 3.5 mph - N/A   Clear
6:17 PM 39.2 °F 37.0 °F 31.1 °F 73% 30.38 in 10.0 mi East 3.5 mph - N/A   Clear
6:36 PM 40.3 °F 38.2 °F 32.0 °F 72% 30.37 in 10.0 mi ESE 3.5 mph - N/A   Clear
6:56 PM 40.6 °F 38.6 °F 32.4 °F 72% 30.37 in 10.0 mi SE 3.5 mph - N/A   Clear
7:17 PM 48.0 °F - 34.2 °F 59% 30.37 in 10.0 mi SSE 4.6 mph - N/A   Clear
7:36 PM 49.1 °F - 33.6 °F 55% 30.36 in 10.0 mi SSE 4.6 mph - N/A   Clear
7:57 PM 49.5 °F - 32.4 °F 52% 30.36 in 10.0 mi SE 5.8 mph - N/A   Clear
8:16 PM 49.3 °F - 32.5 °F 53% 30.36 in 10.0 mi SE 6.9 mph - N/A   Clear
8:36 PM 49.1 °F - 33.1 °F 54% 30.36 in 10.0 mi SE 6.9 mph - N/A   Clear
8:57 PM 48.6 °F - 33.8 °F 57% 30.36 in 10.0 mi SSE 8.1 mph - N/A   Clear
9:17 PM 48.2 °F - 33.3 °F 56% 30.35 in 10.0 mi SSE 8.1 mph - N/A   Clear
9:36 PM 48.0 °F - 33.8 °F 58% 30.35 in 10.0 mi SSE 9.2 mph 16.1 mph N/A   Clear
9:57 PM 47.3 °F - 34.7 °F 62% 30.35 in 10.0 mi SSE 10.4 mph 17.3 mph N/A   Clear
10:17 PM 47.3 °F - 35.1 °F 62% 30.35 in 10.0 mi SSE 8.1 mph - N/A   Clear
10:36 PM 46.8 °F - 35.2 °F 64% 30.35 in 10.0 mi SSE 6.9 mph - N/A   Clear
10:57 PM 46.6 °F - 35.6 °F 66% 30.34 in 10.0 mi SSE 9.2 mph 17.3 mph N/A   Clear
11:16 PM 46.6 °F - 35.6 °F 66% 30.35 in 10.0 mi SSE 10.4 mph 17.3 mph N/A   Clear
11:36 PM 46.4 °F 42.4 °F 35.6 °F 66% 30.34 in 10.0 mi SSE 8.1 mph - N/A   Clear
11:57 PM 46.0 °F 41.9 °F 36.0 °F 68% 30.34 in 10.0 mi SSE 8.1 mph - N/A   Clear